Time;durP1;ratioP1;P1;durP2;ratioP2;P2;SDS_P1;SDS_P2;PMS_P1;PMS_P2;Temp;Humidity;BMP_temperature;BMP_pressure;BME280_temperature;BME280_humidity;BME280_pressure;Samples;Min_cycle;Max_cycle;Signal;HPM_P1;HPM_P2
2023/01/03 00:01:47;;;;;;;42.88;13.75;;;;;;;7.60;59.59;100601.62;4335276;33;20150;-86
2023/01/03 00:04:13;;;;;;;35.38;14.87;;;;;;;7.53;59.59;100605.12;4329565;33;20114;-86
2023/01/03 00:06:43;;;;;;;34.05;13.77;;;;;;;7.54;59.59;100605.97;4336777;33;20098;-85
2023/01/03 00:09:10;;;;;;;48.38;14.10;;;;;;;7.65;59.60;100607.66;4323808;33;20166;-85
2023/01/03 00:14:24;;;;;;;25.83;12.70;;;;;;;7.40;59.59;100619.03;4331221;33;20510;-84
2023/01/03 00:16:51;;;;;;;30.45;13.10;;;;;;;7.39;59.58;100601.75;4321568;33;20143;-84
2023/01/03 00:19:16;;;;;;;37.45;13.62;;;;;;;7.46;59.59;100618.97;4332528;33;20123;-85
2023/01/03 00:21:42;;;;;;;32.53;13.62;;;;;;;7.36;59.59;100618.19;4344921;33;20390;-85
2023/01/03 00:24:07;;;;;;;27.00;11.98;;;;;;;7.19;59.58;100626.87;4321277;33;20155;-85
2023/01/03 00:26:33;;;;;;;28.85;13.65;;;;;;;7.42;59.59;100626.78;4334101;33;20468;-85
2023/01/03 00:28:59;;;;;;;62.05;12.70;;;;;;;7.64;59.60;100613.69;4349998;33;20125;-85
2023/01/03 00:31:24;;;;;;;48.38;13.57;;;;;;;7.53;59.59;100625.84;4325496;33;20138;-86
2023/01/03 00:33:49;;;;;;;36.88;15.48;;;;;;;7.43;59.59;100619.00;4335445;33;20376;-84
2023/01/03 00:36:15;;;;;;;51.13;14.70;;;;;;;7.52;59.59;100613.75;4335777;33;20159;-85
2023/01/03 00:38:40;;;;;;;32.40;13.75;;;;;;;7.27;59.58;100622.53;4323435;33;20115;-86
2023/01/03 00:41:08;;;;;;;53.08;13.90;;;;;;;7.43;59.59;100620.72;4326430;33;20457;-87
2023/01/03 00:43:33;;;;;;;29.77;13.75;;;;;;;7.39;59.58;100623.34;4336847;33;20087;-87
2023/01/03 00:45:59;;;;;;;62.45;16.25;;;;;;;7.42;59.59;100626.78;4324166;33;20126;-86
2023/01/03 00:48:24;;;;;;;62.30;16.12;;;;;;;7.57;59.60;100621.50;4336319;33;20134;-87
2023/01/03 00:50:50;;;;;;;80.75;16.65;;;;;;;7.54;59.59;100619.78;4324047;33;20107;-87
2023/01/03 00:53:15;;;;;;;41.65;14.93;;;;;;;7.54;59.59;100624.09;4347458;33;20135;-86
2023/01/03 00:55:41;;;;;;;57.05;15.25;;;;;;;7.69;59.60;100618.84;4325444;33;20157;-85
2023/01/03 00:58:06;;;;;;;60.10;14.70;;;;;;;7.73;59.61;100624.88;4323067;33;20171;-86
2023/01/03 01:00:31;;;;;;;41.55;14.70;;;;;;;7.76;59.61;100622.25;4334997;33;20099;-83
2023/01/03 01:02:57;;;;;;;58.42;16.98;;;;;;;7.80;59.61;100626.53;4325933;33;21600;-84
2023/01/03 01:05:22;;;;;;;53.47;16.33;;;;;;;7.92;59.62;100626.47;4333223;33;20745;-85
2023/01/03 01:07:48;;;;;;;82.75;16.60;;;;;;;8.06;59.62;100623.78;4328913;33;20115;-83
2023/01/03 01:10:13;;;;;;;73.78;16.58;;;;;;;7.91;59.61;100632.53;4320386;33;20182;-84
2023/01/03 01:12:38;;;;;;;49.47;16.27;;;;;;;7.88;59.62;100628.22;4335856;33;20115;-86
2023/01/03 01:15:05;;;;;;;65.72;17.08;;;;;;;7.86;59.62;100629.12;4335724;33;21589;-86
2023/01/03 01:17:30;;;;;;;78.93;16.60;;;;;;;8.00;59.63;100635.03;4347720;32;20175;-86
2023/01/03 01:19:55;;;;;;;45.97;15.25;;;;;;;7.95;59.62;100637.66;4326149;33;20158;-86
2023/01/03 01:22:21;;;;;;;81.37;17.30;;;;;;;8.06;59.62;100640.19;4335666;33;20185;-86
2023/01/03 01:24:46;;;;;;;58.50;15.43;;;;;;;8.08;59.63;100646.22;4325182;32;20156;-86
2023/01/03 01:27:11;;;;;;;46.13;16.25;;;;;;;8.01;59.62;100644.53;4328479;33;20195;-85
2023/01/03 01:29:37;;;;;;;61.53;16.73;;;;;;;8.13;59.63;100649.66;4332963;32;20400;-85
2023/01/03 01:32:03;;;;;;;46.72;15.82;;;;;;;8.08;59.63;100648.81;4335452;33;20460;-87
2023/01/03 01:34:28;;;;;;;51.05;16.80;;;;;;;7.96;59.62;100641.13;4323521;33;20116;-86
2023/01/03 01:36:54;;;;;;;77.20;15.93;;;;;;;7.90;59.61;100636.84;4328368;33;20433;-85
2023/01/03 01:39:21;;;;;;;72.00;17.12;;;;;;;8.07;59.62;100630.69;4318554;33;20129;-84
2023/01/03 01:44:45;;;;;;;42.05;15.50;;;;;;;8.08;59.63;100625.50;4327913;33;20155;-86
2023/01/03 01:47:30;;;;;;;42.28;15.85;;;;;;;7.98;59.61;100624.69;4338105;33;20179;-86
2023/01/03 01:50:25;;;;;;;57.85;16.45;;;;;;;8.16;59.63;100623.69;4337669;33;20115;-86
2023/01/03 01:52:56;;;;;;;34.30;15.20;;;;;;;8.15;59.63;100611.59;4317027;33;20158;-85
2023/01/03 01:55:29;;;;;;;41.88;16.33;;;;;;;8.29;59.63;100622.72;4333966;33;20396;-86
2023/01/03 01:57:54;;;;;;;54.95;15.70;;;;;;;8.28;59.63;100618.41;4330541;33;20111;-85
2023/01/03 02:00:20;;;;;;;35.92;14.15;;;;;;;8.31;59.64;100623.56;4333042;33;20127;-84
2023/01/03 02:02:47;;;;;;;35.60;14.77;;;;;;;8.38;59.65;100626.13;4332740;33;20127;-87
2023/01/03 02:05:12;;;;;;;39.80;15.82;;;;;;;8.43;59.64;100626.94;4335086;33;20104;-87
2023/01/03 02:07:37;;;;;;;51.75;16.23;;;;;;;8.44;59.64;100633.84;4334657;33;20183;-87
2023/01/03 02:10:03;;;;;;;67.53;15.48;;;;;;;8.43;59.64;100635.59;4334229;33;20127;-86
2023/01/03 02:15:57;;;;;;;;;;;;;;;8.24;59.64;100633.97;4323735;33;20096;-87
2023/01/03 02:18:41;;;;;;;67.15;14.18;;;;;;;8.39;59.65;100646.00;4323079;33;20003;-86
2023/01/03 02:21:15;;;;;;;44.45;16.05;;;;;;;8.32;59.64;100640.84;4344143;33;20129;-87
2023/01/03 02:24:00;;;;;;;36.05;14.98;;;;;;;8.42;59.64;100645.97;4338600;33;20110;-87
2023/01/03 02:26:34;;;;;;;49.95;14.93;;;;;;;8.37;59.64;100645.16;4348159;33;20122;-86
2023/01/03 02:29:37;;;;;;;45.88;14.77;;;;;;;8.41;59.65;100649.44;4347744;32;20134;-87
2023/01/03 02:32:18;;;;;;;73.30;16.05;;;;;;;8.56;59.65;100642.41;4334912;33;20218;-86
2023/01/03 02:34:56;;;;;;;36.78;16.27;;;;;;;8.24;59.64;100652.12;4347976;33;20495;-86
2023/01/03 02:37:33;;;;;;;46.47;14.87;;;;;;;8.41;59.64;100639.94;4348422;33;20111;-86
2023/01/03 02:40:38;;;;;;;33.15;15.48;;;;;;;8.43;59.64;100642.50;4348322;32;20103;-86
2023/01/03 02:43:11;;;;;;;42.95;14.38;;;;;;;8.35;59.64;100633.94;4303597;33;20175;-87
2023/01/03 02:46:03;;;;;;;43.05;15.88;;;;;;;8.31;59.64;100639.12;4291294;33;20610;-86
2023/01/03 02:48:55;;;;;;;42.08;17.35;;;;;;;8.35;59.64;100639.12;4321461;33;20123;-86
2023/01/03 02:51:40;;;;;;;39.03;16.17;;;;;;;8.28;59.63;100641.75;4339024;33;20445;-85
2023/01/03 02:54:08;;;;;;;33.70;15.25;;;;;;;8.35;59.63;100642.59;4333549;33;20110;-85
2023/01/03 02:56:58;;;;;;;57.65;16.85;;;;;;;8.24;59.64;100645.22;4329292;33;20109;-85
2023/01/03 02:59:37;;;;;;;56.97;16.20;;;;;;;8.28;59.63;100639.16;4347257;33;20109;-85
2023/01/03 03:02:02;;;;;;;55.95;16.87;;;;;;;8.43;59.64;100629.53;4331430;33;20146;-86
2023/01/03 03:04:28;;;;;;;102.15;17.60;;;;;;;8.43;59.64;100642.50;4326336;33;20446;-84
2023/01/03 03:06:57;;;;;;;88.20;15.93;;;;;;;8.54;59.65;100646.75;4345185;33;25440;-85
2023/01/03 03:09:23;;;;;;;80.65;16.77;;;;;;;8.66;59.67;100650.94;4334968;33;20495;-86
2023/01/03 03:14:35;;;;;;;62.58;15.27;;;;;;;8.51;59.66;100659.72;4322338;33;20171;-86
2023/01/03 03:17:03;;;;;;;51.65;15.93;;;;;;;8.63;59.66;100658.75;4322029;33;20087;-86
2023/01/03 03:25:21;;;;;;;42.40;14.90;;;;;;;8.48;59.65;100656.28;4343294;33;20143;-86
2023/01/03 03:30:31;;;;;;;42.25;15.18;;;;;;;8.61;59.65;100658.78;4337177;33;20119;-87
2023/01/03 03:33:00;;;;;;;36.28;14.93;;;;;;;8.40;59.65;100650.31;4334865;33;20769;-86
2023/01/03 03:35:25;;;;;;;42.35;17.02;;;;;;;8.54;59.65;100654.53;4332774;33;20107;-86
2023/01/03 03:37:53;;;;;;;40.65;16.30;;;;;;;8.72;59.66;100658.66;4332620;33;20114;-86
2023/01/03 03:46:13;;;;;;;37.90;14.50;;;;;;;8.89;59.68;100654.16;4345711;33;20504;-86
2023/01/03 03:51:29;;;;;;;;;;;;;;;9.00;59.67;100651.47;4325205;33;20496;-85
2023/01/03 03:53:54;;;;;;;33.97;14.55;;;;;;;8.99;59.68;100654.03;4332379;33;19995;-86
2023/01/03 03:56:22;;;;;;;28.27;15.15;;;;;;;8.91;59.67;100649.81;4325033;33;20183;-87
2023/01/03 03:58:50;;;;;;;31.62;14.87;;;;;;;9.07;59.68;100653.09;4318651;33;20110;-86
2023/01/03 04:01:17;;;;;;;31.85;15.00;;;;;;;9.01;59.67;100649.72;4315690;33;20110;-86
2023/01/03 04:03:42;;;;;;;34.47;14.30;;;;;;;9.01;59.68;100654.91;4322157;33;20129;-86
2023/01/03 04:06:10;;;;;;;31.23;13.85;;;;;;;9.18;59.68;100645.16;4331869;33;20115;-86
2023/01/03 04:08:35;;;;;;;31.75;15.30;;;;;;;9.04;59.68;100649.69;4332634;33;20083;-85
2023/01/03 04:11:07;;;;;;;31.73;14.00;;;;;;;9.03;59.68;100655.75;4326732;33;20118;-86
2023/01/03 04:13:33;;;;;;;34.80;15.02;;;;;;;9.03;59.68;100651.44;4324877;32;20103;-86
2023/01/03 04:15:59;;;;;;;33.58;14.13;;;;;;;9.14;59.69;100654.75;4328988;33;20388;-86
2023/01/03 04:18:24;;;;;;;31.90;14.65;;;;;;;8.95;59.67;100657.56;4333845;33;20103;-86
2023/01/03 04:20:50;;;;;;;30.17;14.00;;;;;;;9.05;59.68;100665.25;4333651;33;20124;-86
2023/01/03 04:23:15;;;;;;;32.08;13.98;;;;;;;9.06;59.68;100668.72;4332908;33;20129;-85
2023/01/03 04:25:40;;;;;;;30.23;12.55;;;;;;;9.04;59.68;100662.66;4333683;33;20135;-86
2023/01/03 04:28:06;;;;;;;26.48;12.13;;;;;;;9.17;59.68;100669.44;4323207;33;20185;-86
2023/01/03 04:30:31;;;;;;;26.50;13.20;;;;;;;9.15;59.69;100671.19;4333770;33;20132;-86
2023/01/03 04:32:57;;;;;;;28.85;13.05;;;;;;;9.21;59.69;100666.78;4333155;33;20182;-86
2023/01/03 04:35:22;;;;;;;28.65;12.98;;;;;;;9.18;59.68;100669.41;4348252;33;20502;-85
2023/01/03 04:37:47;;;;;;;28.62;13.23;;;;;;;9.00;59.68;100661.84;4335572;33;20117;-85
2023/01/03 04:40:13;;;;;;;25.55;13.77;;;;;;;9.01;59.68;100666.16;4327696;33;20108;-85
2023/01/03 04:45:22;;;;;;;30.10;13.07;;;;;;;8.93;59.67;100667.97;4337358;33;20125;-85
2023/01/03 04:47:48;;;;;;;35.50;14.00;;;;;;;8.74;59.67;100675.06;4332152;33;20092;-84
2023/01/03 04:50:13;;;;;;;32.03;14.27;;;;;;;8.82;59.67;100686.25;4332446;33;22541;-86
2023/01/03 04:52:39;;;;;;;36.42;13.15;;;;;;;8.89;59.68;100682.72;4333010;33;20171;-85
2023/01/03 04:55:04;;;;;;;31.08;14.10;;;;;;;8.81;59.66;100684.53;4323448;33;20215;-85
2023/01/03 04:57:30;;;;;;;33.22;13.43;;;;;;;8.65;59.66;100687.28;4335186;33;20084;-86
2023/01/03 04:59:55;;;;;;;35.10;14.60;;;;;;;8.54;59.66;100690.00;4348942;33;20391;-86
2023/01/03 05:02:21;;;;;;;37.35;14.52;;;;;;;8.63;59.66;100689.91;4313667;33;20522;-84
2023/01/03 05:04:46;;;;;;;36.47;14.10;;;;;;;8.65;59.66;100687.28;4335301;33;20166;-86
2023/01/03 05:07:12;;;;;;;36.80;15.48;;;;;;;8.58;59.65;100691.69;4342970;33;20410;-86
2023/01/03 05:09:37;;;;;;;39.42;15.73;;;;;;;8.71;59.66;100695.88;4316878;33;20183;-86
2023/01/03 05:12:02;;;;;;;36.20;14.15;;;;;;;8.58;59.65;100689.94;4322857;33;20170;-85
2023/01/03 05:14:28;;;;;;;32.10;13.27;;;;;;;8.65;59.66;100693.34;4323147;33;20786;-85
2023/01/03 05:16:53;;;;;;;36.50;14.75;;;;;;;8.61;59.65;100696.84;4334907;33;20516;-85
2023/01/03 05:19:19;;;;;;;37.90;15.20;;;;;;;8.67;59.66;100699.38;4326590;33;20117;-84
2023/01/03 05:25:48;;;;;;;31.17;12.43;;;;;;;8.80;59.66;100703.59;4337870;32;20118;-84
2023/01/03 05:27:20;;;;;;;35.40;13.77;;;;;;;8.69;59.66;100702.81;4337358;33;20095;-83
2023/01/03 05:29:46;;;;;;;33.35;14.13;;;;;;;8.73;59.66;100709.69;4321120;33;20159;-83
2023/01/03 05:32:11;;;;;;;35.22;15.02;;;;;;;8.73;59.66;100714.87;4320555;33;20457;-86
2023/01/03 05:34:37;;;;;;;35.67;13.57;;;;;;;8.70;59.66;100714.06;4333234;33;20117;-85
2023/01/03 05:37:02;;;;;;;37.83;14.80;;;;;;;8.79;59.67;100721.78;4322707;33;20167;-85
2023/01/03 05:39:27;;;;;;;40.05;14.98;;;;;;;8.68;59.66;100729.66;4333990;32;20107;-86
2023/01/03 05:41:59;;;;;;;37.85;14.93;;;;;;;8.63;59.66;100736.62;4335207;33;20102;-86
2023/01/03 05:44:28;;;;;;;35.10;14.48;;;;;;;8.70;59.66;100738.28;4333253;33;20068;-86
2023/01/03 05:46:53;;;;;;;33.97;15.88;;;;;;;8.74;59.65;100736.50;4334231;33;20111;-85
2023/01/03 05:49:18;;;;;;;42.08;15.32;;;;;;;8.71;59.66;100742.59;4331018;33;20147;-84
2023/01/03 05:51:44;;;;;;;39.53;16.52;;;;;;;8.76;59.66;100743.44;4316780;33;20191;-85
2023/01/03 05:54:13;;;;;;;39.72;16.40;;;;;;;8.81;59.66;100740.81;4332309;33;20126;-85
2023/01/03 05:56:38;;;;;;;37.27;15.17;;;;;;;8.77;59.66;100742.56;4320153;33;20504;-85
2023/01/03 05:59:06;;;;;;;33.83;14.95;;;;;;;8.90;59.67;100740.69;4331990;33;20158;-85
2023/01/03 06:01:32;;;;;;;37.03;15.63;;;;;;;8.87;59.67;100744.19;4347283;33;20173;-85
2023/01/03 06:03:57;;;;;;;36.30;15.30;;;;;;;9.15;59.69;100747.38;4322799;33;20453;-85
2023/01/03 06:06:22;;;;;;;34.20;14.45;;;;;;;9.16;59.69;100746.50;4334849;33;20091;-85
2023/01/03 06:08:48;;;;;;;34.80;15.40;;;;;;;9.09;59.68;100746.59;4322508;33;20117;-86
2023/01/03 06:11:14;;;;;;;35.28;15.00;;;;;;;9.28;59.70;100750.72;4322574;33;20162;-85
2023/01/03 06:13:39;;;;;;;36.58;16.10;;;;;;;9.24;59.69;100759.44;4334982;33;20099;-85
2023/01/03 06:19:00;;;;;;;38.65;15.18;;;;;;;9.27;59.70;100756.78;4328842;33;20110;-86
2023/01/03 06:21:26;;;;;;;27.92;13.35;;;;;;;9.39;59.70;100758.38;4335127;33;20457;-85
2023/01/03 06:23:51;;;;;;;33.83;15.77;;;;;;;9.28;59.69;100755.91;4335091;33;20125;-85
2023/01/03 06:26:17;;;;;;;33.70;15.30;;;;;;;9.22;59.69;100756.81;4322769;32;20095;-86
2023/01/03 06:28:43;;;;;;;34.90;14.55;;;;;;;9.33;59.69;100756.72;4328247;33;20084;-85
2023/01/03 06:31:08;;;;;;;30.58;13.88;;;;;;;9.30;59.69;100756.75;4319765;33;20565;-85
2023/01/03 06:33:34;;;;;;;31.52;14.75;;;;;;;9.26;59.70;100762.87;4326994;33;20146;-83
2023/01/03 06:36:04;;;;;;;35.05;14.55;;;;;;;9.29;59.70;100757.62;4320207;33;20388;-86
2023/01/03 06:38:29;;;;;;;32.42;14.00;;;;;;;9.38;59.69;100757.53;4325209;33;20147;-85
2023/01/03 06:40:54;;;;;;;30.35;14.63;;;;;;;9.32;59.69;100762.78;4332035;33;20116;-84
2023/01/03 06:43:20;;;;;;;34.83;14.30;;;;;;;9.36;59.70;100763.63;4347332;33;20115;-86
2023/01/03 06:54:03;;;;;;;33.72;14.80;;;;;;;9.32;59.69;100785.31;4336785;33;20125;-85
2023/01/03 06:56:28;;;;;;;42.40;17.02;;;;;;;9.23;59.69;100787.16;4335320;33;20099;-86
2023/01/03 06:58:54;;;;;;;38.00;16.08;;;;;;;9.20;59.69;100789.75;4322653;33;20103;-86
2023/01/03 07:01:19;;;;;;;35.97;14.87;;;;;;;9.20;59.69;100789.75;4332078;33;20187;-84
2023/01/03 07:03:44;;;;;;;50.92;15.82;;;;;;;9.13;59.68;100789.81;4322575;33;20441;-86
2023/01/03 07:06:10;;;;;;;33.97;15.02;;;;;;;9.27;59.68;100794.91;4334856;33;20130;-87
2023/01/03 07:08:35;;;;;;;41.35;15.57;;;;;;;9.34;59.70;100793.94;4334671;33;20205;-85
2023/01/03 07:11:01;;;;;;;30.23;13.30;;;;;;;9.44;59.70;100793.81;4332211;33;20166;-86
2023/01/03 07:16:17;;;;;;;36.30;13.60;;;;;;;9.37;59.70;100797.38;4330775;33;20156;-86
2023/01/03 07:18:43;;;;;;;31.73;13.65;;;;;;;9.46;59.70;100812.00;4322833;33;20474;-86
2023/01/03 07:21:08;;;;;;;30.12;14.68;;;;;;;9.42;59.71;100810.31;4320250;33;20156;-86
2023/01/03 07:23:33;;;;;;;29.37;12.95;;;;;;;9.46;59.70;100812.91;4332011;33;20126;-86
2023/01/03 07:25:59;;;;;;;28.12;12.37;;;;;;;9.34;59.70;100804.34;4334651;33;20422;-84
2023/01/03 07:28:24;;;;;;;27.48;12.23;;;;;;;9.59;59.71;100808.41;4334768;33;20251;-87
2023/01/03 07:30:50;;;;;;;30.30;12.25;;;;;;;9.60;59.71;100806.66;4334435;33;20121;-86
2023/01/03 07:33:15;;;;;;;22.02;11.10;;;;;;;9.64;59.70;100808.34;4318503;33;20119;-86
2023/01/03 07:35:41;;;;;;;23.92;12.35;;;;;;;9.69;59.72;100811.75;4329417;33;20099;-86
2023/01/03 07:38:07;;;;;;;24.10;11.90;;;;;;;9.80;59.73;100812.50;4322078;33;20170;-86
2023/01/03 07:40:32;;;;;;;26.40;12.00;;;;;;;9.93;59.72;100813.19;4324256;33;20104;-85
2023/01/03 07:46:05;;;;;;;20.37;10.82;;;;;;;10.00;59.73;100813.13;4316022;33;20115;-86
2023/01/03 07:48:31;;;;;;;18.98;10.35;;;;;;;10.18;59.75;100821.59;4316080;33;20147;-86
2023/01/03 07:50:57;;;;;;;22.98;11.15;;;;;;;10.18;59.75;100824.19;4311736;33;20221;-85
2023/01/03 07:53:22;;;;;;;19.77;10.80;;;;;;;10.19;59.74;100829.38;4331761;33;20107;-86
2023/01/03 07:55:47;;;;;;;24.92;11.45;;;;;;;10.14;59.73;100828.53;4331444;33;20134;-86
2023/01/03 07:58:13;;;;;;;22.08;11.70;;;;;;;10.01;59.72;100833.06;4331286;33;20103;-86
2023/01/03 08:00:39;;;;;;;22.45;11.38;;;;;;;10.04;59.73;100838.22;4331411;33;20099;-86
2023/01/03 08:03:04;;;;;;;24.90;13.05;;;;;;;10.02;59.73;100845.19;4335657;33;20111;-86
2023/01/03 08:05:30;;;;;;;24.55;13.13;;;;;;;9.85;59.72;100844.50;4335708;33;20121;-86
2023/01/03 08:07:55;;;;;;;23.05;12.18;;;;;;;9.84;59.72;100846.25;4328708;33;20523;-86
2023/01/03 08:13:17;;;;;;;24.15;12.55;;;;;;;10.03;59.74;100849.50;4333059;33;20704;-85
2023/01/03 08:15:54;;;;;;;26.30;12.02;;;;;;;10.12;59.74;100843.31;4331533;33;20083;-85
2023/01/03 08:18:21;;;;;;;24.85;11.90;;;;;;;9.95;59.73;100846.16;4319263;33;20083;-84
2023/01/03 08:20:47;;;;;;;23.87;13.18;;;;;;;9.91;59.72;100853.97;4316888;33;20099;-86
2023/01/03 08:23:13;;;;;;;24.37;12.30;;;;;;;9.85;59.72;100852.31;4323609;33;20138;-86
2023/01/03 08:25:38;;;;;;;24.73;12.10;;;;;;;9.63;59.71;100850.81;4335637;33;20106;-86
2023/01/03 08:28:04;;;;;;;28.50;13.15;;;;;;;9.70;59.71;100848.16;4336223;33;20079;-85
2023/01/03 08:30:30;;;;;;;25.90;13.07;;;;;;;9.79;59.71;100853.25;4328024;33;20142;-84
2023/01/03 08:32:55;;;;;;;24.35;12.75;;;;;;;9.84;59.72;100855.78;4321510;33;20162;-85
2023/01/03 08:35:21;;;;;;;24.70;13.73;;;;;;;9.76;59.72;100858.50;4317362;33;20142;-85
2023/01/03 08:37:46;;;;;;;26.42;12.70;;;;;;;9.86;59.72;100861.84;4335594;33;20141;-86
2023/01/03 08:40:12;;;;;;;23.15;12.43;;;;;;;9.87;59.73;100860.94;4323770;33;20107;-86
2023/01/03 08:42:37;;;;;;;26.30;12.73;;;;;;;9.82;59.72;100862.75;4335443;33;20145;-86
2023/01/03 08:45:05;;;;;;;26.08;13.02;;;;;;;9.89;59.72;100861.78;4335646;33;20121;-86
2023/01/03 08:47:30;;;;;;;24.17;13.57;;;;;;;9.95;59.73;100866.94;4325653;33;20422;-85
2023/01/03 08:49:56;;;;;;;27.65;14.50;;;;;;;10.01;59.72;100864.28;4335277;33;20173;-86
2023/01/03 08:52:21;;;;;;;23.38;12.95;;;;;;;10.13;59.74;100866.69;4335051;33;20154;-85
2023/01/03 08:54:46;;;;;;;26.65;13.65;;;;;;;10.14;59.74;100862.38;4322756;33;21066;-85
2023/01/03 08:57:12;;;;;;;25.50;13.15;;;;;;;10.21;59.74;100866.66;4323022;33;20083;-85
2023/01/03 08:59:38;;;;;;;26.90;14.02;;;;;;;10.24;59.74;100870.97;4333925;32;22095;-83
2023/01/03 09:02:04;;;;;;;26.33;13.23;;;;;;;10.40;59.75;100869.84;4334145;33;20171;-84
2023/01/03 09:04:29;;;;;;;26.58;13.30;;;;;;;10.35;59.75;100876.88;4321445;33;20111;-84
2023/01/03 09:06:54;;;;;;;29.77;14.07;;;;;;;10.47;59.75;100878.47;4333570;33;20099;-85
2023/01/03 09:09:20;;;;;;;25.25;13.45;;;;;;;10.60;59.76;100878.25;4327803;33;20100;-84
2023/01/03 09:11:46;;;;;;;31.17;14.75;;;;;;;10.71;59.77;100881.59;4331769;33;20135;-85
2023/01/03 09:14:11;;;;;;;26.80;13.07;;;;;;;10.75;59.77;100879.78;4313626;33;20141;-86
2023/01/03 09:16:37;;;;;;;28.40;14.35;;;;;;;10.90;59.78;100881.31;4333723;33;20154;-83
2023/01/03 09:19:02;;;;;;;28.62;13.55;;;;;;;10.87;59.78;100882.19;4332918;33;20650;-85
2023/01/03 09:21:28;;;;;;;24.98;13.00;;;;;;;11.03;59.78;100883.69;4333827;33;20141;-85
2023/01/03 09:23:53;;;;;;;25.10;12.90;;;;;;;11.07;59.79;100884.50;4334058;33;20467;-87
2023/01/03 09:26:19;;;;;;;29.00;13.80;;;;;;;11.22;59.81;100881.66;4321807;33;20162;-83
2023/01/03 09:28:44;;;;;;;23.52;12.55;;;;;;;11.14;59.79;100882.69;4321978;33;20280;-85
2023/01/03 09:31:10;;;;;;;24.92;11.80;;;;;;;11.04;59.79;100887.16;4331505;32;23118;-85
2023/01/03 09:33:35;;;;;;;27.87;12.68;;;;;;;11.19;59.80;100884.31;4311620;33;20128;-87
2023/01/03 09:36:01;;;;;;;25.27;12.57;;;;;;;11.29;59.79;100880.66;4343835;32;20096;-84
2023/01/03 09:38:26;;;;;;;25.88;12.07;;;;;;;11.10;59.79;100894.87;4326726;33;20164;-86
2023/01/03 09:40:58;;;;;;;26.20;12.40;;;;;;;11.15;59.79;100876.59;4323892;33;20103;-86
2023/01/03 09:43:23;;;;;;;23.62;11.80;;;;;;;11.14;59.79;100875.72;4340503;33;20134;-84
2023/01/03 09:45:50;;;;;;;21.87;11.20;;;;;;;11.12;59.79;100880.09;4331545;33;20108;-85
2023/01/03 09:48:19;;;;;;;24.37;11.80;;;;;;;11.18;59.79;100881.75;4326611;33;20099;-85
2023/01/03 09:50:45;;;;;;;21.85;10.85;;;;;;;11.30;59.79;100876.31;4333479;33;20107;-85
2023/01/03 10:04:56;;;;;;;24.60;10.93;;;;;;;11.47;59.81;100882.09;4347250;32;20109;-85
2023/01/03 10:07:46;;;;;;;20.52;10.82;;;;;;;11.44;59.80;100876.09;4333574;32;20079;-85
2023/01/03 10:10:40;;;;;;;24.08;12.37;;;;;;;11.58;59.81;100874.94;4342850;33;20130;-85
2023/01/03 10:13:25;;;;;;;24.80;11.90;;;;;;;11.57;59.81;100869.75;4330959;33;20110;-85
2023/01/03 10:16:05;;;;;;;22.00;11.45;;;;;;;11.70;59.82;100863.44;4346572;33;20494;-85
2023/01/03 10:18:55;;;;;;;27.70;12.80;;;;;;;11.73;59.82;100865.97;4331400;33;20126;-85
2023/01/03 10:21:24;;;;;;;24.50;12.07;;;;;;;11.62;59.82;100862.72;4336701;33;20107;-85
2023/01/03 10:23:49;;;;;;;24.17;12.00;;;;;;;11.50;59.81;100871.63;4340194;33;20107;-85
2023/01/03 10:26:15;;;;;;;28.05;12.40;;;;;;;11.46;59.81;100866.50;4330107;33;20158;-86
2023/01/03 10:28:42;;;;;;;23.05;12.18;;;;;;;11.57;59.81;100867.13;4328105;33;20067;-84
2023/01/03 10:31:30;;;;;;;26.05;12.98;;;;;;;11.68;59.82;100863.47;4328631;32;20280;-85
2023/01/03 10:33:56;;;;;;;25.98;11.88;;;;;;;11.69;59.82;100865.19;4328867;33;20178;-86
2023/01/03 10:36:21;;;;;;;25.60;12.70;;;;;;;11.75;59.81;100860.72;4319053;33;20108;-85
2023/01/03 10:38:46;;;;;;;25.67;12.05;;;;;;;11.73;59.82;100863.38;4328858;33;20142;-86
2023/01/03 10:41:35;;;;;;;27.77;13.27;;;;;;;11.97;59.83;100851.63;4323621;33;24669;-85
2023/01/03 10:44:03;;;;;;;24.00;11.70;;;;;;;11.91;59.84;100859.59;4335937;33;20154;-85
2023/01/03 10:46:29;;;;;;;23.02;11.20;;;;;;;11.68;59.82;100847.81;4322640;33;20139;-84
2023/01/03 10:48:56;;;;;;;22.33;11.48;;;;;;;11.66;59.81;100856.56;4318938;33;20130;-84
2023/01/03 10:51:32;;;;;;;24.92;11.95;;;;;;;11.69;59.82;100849.53;4324993;33;20133;-85
2023/01/03 10:53:59;;;;;;;24.05;11.52;;;;;;;11.71;59.82;100851.25;4320628;32;20582;-84
2023/01/03 10:56:26;;;;;;;24.90;12.05;;;;;;;11.90;59.83;100848.28;4321099;33;20103;-85
2023/01/03 10:59:22;;;;;;;23.50;11.90;;;;;;;11.98;59.83;100845.53;4323955;33;20094;-85
2023/01/03 11:02:13;;;;;;;24.17;11.95;;;;;;;11.83;59.83;100857.13;4326928;33;20473;-84
2023/01/03 11:04:39;;;;;;;24.70;12.63;;;;;;;11.68;59.83;100852.16;4346016;32;20162;-84
2023/01/03 11:07:07;;;;;;;23.50;11.15;;;;;;;11.85;59.83;100851.88;4333550;33;20087;-85
2023/01/03 11:09:35;;;;;;;21.02;11.57;;;;;;;12.01;59.84;100842.84;4346370;33;20095;-86
2023/01/03 11:12:04;;;;;;;23.10;11.65;;;;;;;11.77;59.83;100836.34;4331500;33;20111;-86
2023/01/03 11:14:30;;;;;;;20.67;9.52;;;;;;;11.84;59.83;100837.13;4334272;33;20107;-86
2023/01/03 11:17:03;;;;;;;22.20;11.40;;;;;;;11.85;59.83;100842.31;4332375;33;20122;-85
2023/01/03 11:19:33;;;;;;;21.48;10.55;;;;;;;11.82;59.82;100829.31;4346420;33;20495;-84
2023/01/03 11:22:12;;;;;;;21.42;10.73;;;;;;;11.62;59.82;100831.44;4334047;33;20102;-84
2023/01/03 11:25:07;;;;;;;24.02;11.20;;;;;;;11.68;59.81;100839.12;4334341;33;20110;-85
2023/01/03 11:27:35;;;;;;;22.40;10.68;;;;;;;11.60;59.81;100844.50;4347179;33;20476;-84
2023/01/03 11:30:12;;;;;;;22.23;10.88;;;;;;;11.56;59.81;100841.94;4333629;33;20099;-84
2023/01/03 11:32:43;;;;;;;21.73;11.25;;;;;;;11.75;59.82;100845.06;4345906;33;20634;-85
2023/01/03 11:35:48;;;;;;;25.48;10.30;;;;;;;11.77;59.83;100838.06;4345335;33;20138;-86
2023/01/03 11:38:25;;;;;;;19.65;9.30;;;;;;;11.87;59.83;100843.13;4347114;33;20167;-83
2023/01/03 11:41:12;;;;;;;18.42;9.55;;;;;;;11.99;59.84;100835.03;4334251;33;20106;-84
2023/01/03 11:43:51;;;;;;;20.88;10.63;;;;;;;11.79;59.83;100837.19;4347530;32;20111;-86
2023/01/03 11:46:26;;;;;;;21.83;10.45;;;;;;;11.67;59.81;100833.06;4337935;32;20108;-85
2023/01/03 11:48:58;;;;;;;22.77;10.90;;;;;;;11.78;59.83;100835.47;4357753;32;20087;-85
2023/01/03 11:51:44;;;;;;;25.05;11.18;;;;;;;11.62;59.82;100828.81;4335490;33;20100;-84
2023/01/03 11:54:25;;;;;;;23.60;11.10;;;;;;;11.62;59.82;100831.44;4334512;33;20131;-84
2023/01/03 11:56:50;;;;;;;22.17;11.02;;;;;;;11.53;59.82;100834.19;4334691;33;20420;-85
2023/01/03 11:59:37;;;;;;;24.80;11.38;;;;;;;11.60;59.83;100836.69;4334805;33;20131;-85
2023/01/03 12:02:25;;;;;;;21.58;10.88;;;;;;;11.69;59.83;100831.28;4348797;32;20686;-86
2023/01/03 12:05:09;;;;;;;27.77;15.85;;;;;;;11.84;59.84;100822.34;4337791;33;20068;-86
2023/01/03 12:07:49;;;;;;;19.50;10.90;;;;;;;11.87;59.83;100829.22;4339945;32;20129;-85
2023/01/03 12:10:49;;;;;;;20.55;11.12;;;;;;;11.98;59.84;100828.09;4335097;33;20087;-86
2023/01/03 12:13:30;;;;;;;20.77;11.02;;;;;;;12.06;59.85;100824.47;4349000;33;20127;-85
2023/01/03 12:16:01;;;;;;;19.20;9.60;;;;;;;11.90;59.84;100822.19;4348268;33;20437;-85
2023/01/03 12:18:45;;;;;;;22.45;10.07;;;;;;;11.91;59.84;100817.84;4349243;32;20099;-87
2023/01/03 12:21:30;;;;;;;27.85;18.62;;;;;;;11.62;59.82;100821.00;4349378;32;20110;-85
2023/01/03 12:24:04;;;;;;;27.92;14.15;;;;;;;11.77;59.83;100820.69;4342356;33;20601;-86
2023/01/03 12:26:29;;;;;;;22.30;11.55;;;;;;;11.75;59.82;100811.16;4335166;33;20461;-86
2023/01/03 12:29:04;;;;;;;25.65;14.43;;;;;;;11.55;59.82;100816.75;4332888;33;20122;-86
2023/01/03 12:31:44;;;;;;;23.60;11.02;;;;;;;11.40;59.81;100811.84;4347112;33;20118;-83